.
WxDataArchive / Data Records for 2008-09-10
2008-09-09 September 2008 2008-09-11

Data Records for Wednesday, 10 September 2008

Time	Temp	Chill	HIndex	Humid	Dewpt	 Wind 	HiWind	WindDir	Rain 	Barom 
-----	----	-----	------	-----	-----	------	------	-------	-----	----- 
00:00	53.2	53.2	53.2	72	44.4	0	0	---	0.00	30.165 
00:05	53.1	53.1	53.1	72	44.3	0	0	---	0.00	30.165 
00:10	52.9	52.9	52.9	73	44.5	0	0	---	0.00	30.165 
00:15	52.8	52.8	52.8	73	44.4	0	0	---	0.00	30.167 
00:20	52.6	52.6	52.6	74	44.6	0	0	---	0.00	30.167 
00:25	52.3	52.3	52.3	74	44.3	0	0	---	0.00	30.167 
00:30	52.3	52.3	52.3	74	44.3	0	0	---	0.00	30.173 
00:35	52.0	52.0	52.0	75	44.3	0	0	---	0.00	30.173 
00:40	51.9	51.9	51.9	75	44.2	0	0	---	0.00	30.173 
00:45	51.7	51.7	51.7	76	44.4	0	0	---	0.00	30.170 
00:50	51.4	51.4	51.4	76	44.1	0	0	---	0.00	30.170 
00:55	51.1	51.1	51.1	77	44.1	0	0	---	0.00	30.170 
01:00	51.0	51.0	51.0	78	44.4	0	0	---	0.00	30.174 
01:05	50.7	50.7	50.7	79	44.4	0	0	---	0.00	30.174 
01:10	50.4	50.4	50.4	79	44.1	0	0	---	0.00	30.174 
01:15	50.2	50.2	50.2	79	43.9	0	0	---	0.00	30.176 
01:20	49.9	49.9	49.9	80	44.0	0	0	---	0.00	30.176 
01:25	49.6	49.6	49.6	81	44.0	0	0	---	0.00	30.176 
01:30	49.5	49.5	49.5	82	44.2	0	0	---	0.00	30.177 
01:35	49.4	49.4	49.4	83	44.5	0	0	---	0.00	30.177 
01:40	49.2	49.2	49.2	83	44.3	0	0	---	0.00	30.177 
01:45	49.1	49.1	49.1	84	44.5	0	0	---	0.00	30.178 
01:50	48.9	48.9	48.9	85	44.6	0	0	---	0.00	30.178 
01:55	48.8	48.8	48.8	85	44.5	0	0	---	0.00	30.178 
02:00	48.6	48.6	48.6	86	44.6	0	0	---	0.00	30.176 
02:05	48.6	48.6	48.6	86	44.6	0	0	---	0.00	30.176 
02:10	48.5	48.5	48.5	86	44.5	0	0	---	0.00	30.176 
02:15	48.5	48.5	48.5	87	44.8	0	0	---	0.00	30.175 
02:20	48.3	48.3	48.3	87	44.6	0	2	225	0.00	30.175 
02:25	48.3	48.3	48.3	87	44.6	0	0	---	0.00	30.175 
02:30	48.2	48.2	48.2	88	44.8	0	0	---	0.00	30.179 
02:35	48.0	48.0	48.0	88	44.6	0	0	---	0.00	30.179 
02:40	48.0	48.0	48.0	88	44.6	0	0	---	0.00	30.179 
02:45	47.9	47.9	47.9	88	44.5	0	0	---	0.00	30.179 
02:50	47.7	47.7	47.7	88	44.3	0	0	---	0.00	30.179 
02:55	47.6	47.6	47.6	88	44.2	0	0	---	0.00	30.179 
03:00	47.4	47.4	47.4	89	44.3	0	0	---	0.00	30.181 
03:05	47.3	47.3	47.3	89	44.2	0	0	---	0.00	30.181 
03:10	47.0	47.0	47.0	89	43.9	0	0	---	0.00	30.181 
03:15	46.8	46.8	46.8	89	43.7	0	0	---	0.00	30.184 
03:20	46.8	46.8	46.8	89	43.7	0	0	---	0.00	30.184 
03:25	46.5	46.5	46.5	90	43.7	0	0	---	0.00	30.184 
03:30	46.5	46.5	46.5	90	43.7	0	0	---	0.00	30.183 
03:35	46.4	46.4	46.4	90	43.6	0	0	---	0.00	30.183 
03:40	46.2	46.2	46.2	91	43.7	0	0	---	0.00	30.183 
03:45	46.2	46.2	46.2	91	43.7	0	0	---	0.00	30.183 
03:50	46.2	46.2	46.2	91	43.7	0	0	---	0.00	30.183 
03:55	46.2	46.2	46.2	92	44.0	0	0	---	0.00	30.183 
04:00	46.1	46.1	46.1	92	43.9	0	0	---	0.00	30.184 
04:05	46.1	46.1	46.1	92	43.9	0	0	---	0.00	30.184 
04:10	46.0	46.0	46.0	92	43.8	0	0	---	0.00	30.184 
04:15	46.0	46.0	46.0	92	43.8	0	0	---	0.00	30.186 
04:20	46.0	46.0	46.0	92	43.8	0	0	---	0.00	30.186 
04:25	46.0	46.0	46.0	92	43.8	0	0	---	0.00	30.186 
04:30	45.8	45.8	45.8	93	43.9	0	0	---	0.00	30.187 
04:35	45.8	45.8	45.8	93	43.9	0	0	---	0.00	30.187 
04:40	45.8	45.8	45.8	93	43.9	0	0	---	0.00	30.187 
04:45	45.8	45.8	45.8	93	43.9	0	0	---	0.00	30.189 
04:50	45.8	45.8	45.8	93	43.9	0	0	---	0.00	30.189 
04:55	45.8	45.8	45.8	93	43.9	0	0	---	0.00	30.189 
05:00	45.8	45.8	45.8	93	43.9	0	0	---	0.00	30.193 
05:05	45.8	45.8	45.8	93	43.9	0	0	---	0.00	30.193 
05:10	45.8	45.8	45.8	93	43.9	0	0	---	0.00	30.193 
05:15	45.7	45.7	45.7	94	44.1	0	0	---	0.00	30.195 
05:20	45.7	45.7	45.7	94	44.1	0	0	---	0.00	30.195 
05:25	45.7	45.7	45.7	94	44.1	0	0	---	0.00	30.195 
05:30	45.7	45.7	45.7	94	44.1	0	0	---	0.00	30.199 
05:35	46.0	46.0	46.0	94	44.4	0	0	---	0.00	30.199 
05:40	46.1	46.1	46.1	94	44.5	0	0	---	0.00	30.199 
05:45	46.1	46.1	46.1	94	44.5	0	0	---	0.00	30.201 
05:50	46.1	46.1	46.1	94	44.5	0	0	---	0.00	30.201 
05:55	46.1	46.1	46.1	94	44.5	0	0	---	0.00	30.201 
06:00	46.1	46.1	46.1	94	44.5	0	0	---	0.00	30.209 
06:05	46.0	46.0	46.0	94	44.4	0	0	---	0.00	30.209 
06:10	46.0	46.0	46.0	94	44.4	0	0	---	0.00	30.209 
06:15	46.0	46.0	46.0	94	44.4	0	0	---	0.00	30.218 
06:20	46.0	46.0	46.0	94	44.4	0	0	---	0.00	30.218 
06:25	46.0	46.0	46.0	94	44.4	0	0	---	0.00	30.218 
06:30	46.1	46.1	46.1	94	44.5	0	0	---	0.00	30.220 
06:35	46.1	46.1	46.1	94	44.5	0	0	---	0.00	30.220 
06:40	46.1	46.1	46.1	94	44.5	0	0	---	0.00	30.220 
06:45	46.7	46.7	46.7	94	45.1	0	2	225	0.00	30.222 
06:50	47.3	47.3	47.3	94	45.7	0	1	225	0.00	30.222 
06:55	47.9	47.9	47.9	93	46.0	0	2	202	0.00	30.222 
07:00	48.3	48.3	48.3	92	46.1	1	5	202	0.00	30.225 
07:05	48.9	48.9	48.9	90	46.1	0	2	90	0.00	30.225 
07:10	49.5	49.5	49.5	89	46.4	0	2	90	0.00	30.225 
07:15	50.2	50.2	50.2	87	46.5	1	3	90	0.00	30.233 
07:20	51.1	51.1	51.1	84	46.4	0	3	90	0.00	30.233 
07:25	51.7	51.7	51.7	82	46.4	1	5	112	0.00	30.233 
07:30	52.2	52.2	52.2	81	46.5	1	3	112	0.00	30.233 
07:35	52.6	52.6	52.6	81	46.9	1	2	112	0.00	30.233 
07:40	52.9	52.9	52.9	81	47.2	0	2	112	0.00	30.233 
07:45	53.3	53.3	53.3	81	47.6	0	1	112	0.00	30.234 
07:50	53.5	53.5	53.5	80	47.5	1	4	112	0.00	30.234 
07:55	53.6	53.6	53.6	80	47.6	1	4	112	0.00	30.234 
08:00	54.1	54.1	54.1	80	48.1	1	3	90	0.00	30.232 
08:05	54.4	54.4	54.4	80	48.4	1	5	90	0.00	30.232 
08:10	54.7	54.7	54.7	79	48.3	1	3	90	0.00	30.232 
08:15	55.0	55.0	55.0	78	48.3	2	5	90	0.00	30.232 
08:20	55.3	55.3	55.3	79	48.9	1	4	112	0.00	30.232 
08:25	55.6	55.6	55.6	79	49.2	1	4	112	0.00	30.232 
08:30	55.9	55.9	55.9	78	49.1	2	6	90	0.00	30.231 
08:35	56.3	56.3	56.3	78	49.5	1	4	112	0.00	30.231 
08:40	56.7	56.7	56.7	78	49.9	1	2	45	0.00	30.231 
08:45	57.5	57.5	57.5	77	50.3	2	4	90	0.00	30.231 
08:50	58.1	58.1	58.1	75	50.2	2	4	90	0.00	30.231 
08:55	58.9	58.9	58.9	73	50.3	3	7	90	0.00	30.231 
09:00	59.8	59.8	59.8	71	50.4	2	5	90	0.00	30.228 
09:05	60.7	60.7	60.7	69	50.5	2	7	90	0.00	30.228 
09:10	61.5	61.5	61.5	69	51.2	2	6	90	0.00	30.228 
09:15	62.1	62.1	62.1	66	50.6	2	6	68	0.00	30.230 
09:20	62.6	62.6	62.6	65	50.7	2	5	90	0.00	30.230 
09:25	62.6	62.6	62.6	66	51.1	2	6	90	0.00	30.230 
09:30	62.7	62.7	62.7	67	51.6	2	4	90	0.00	30.231 
09:35	62.7	62.7	62.7	67	51.6	3	10	90	0.00	30.231 
09:40	63.1	63.1	63.1	66	51.6	2	5	112	0.00	30.231 
09:45	64.0	64.0	64.0	64	51.6	1	4	112	0.00	30.232 
09:50	64.5	64.5	64.5	64	52.0	2	6	90	0.00	30.232 
09:55	64.8	64.8	64.8	62	51.5	2	7	112	0.00	30.232 
10:00	65.3	65.3	65.3	61	51.5	2	4	112	0.00	30.233 
10:05	66.0	66.0	66.0	60	51.7	1	5	90	0.00	30.233 
10:10	66.3	66.3	66.3	60	52.0	2	6	90	0.00	30.233 
10:15	66.6	66.6	66.6	58	51.4	2	5	112	0.00	30.227 
10:20	66.9	66.9	66.9	58	51.6	3	10	112	0.00	30.227 
10:25	66.9	66.9	66.9	57	51.2	3	7	90	0.00	30.227 
10:30	66.9	66.9	66.9	58	51.6	3	7	90	0.00	30.230 
10:35	67.1	67.1	67.1	56	50.9	3	7	90	0.00	30.230 
10:40	67.6	67.6	67.6	54	50.4	2	6	112	0.00	30.230 
10:45	68.1	68.1	68.1	54	50.8	2	6	90	0.00	30.228 
10:50	68.6	68.6	68.6	52	50.3	2	6	90	0.00	30.228 
10:55	68.8	68.8	68.8	53	51.0	1	6	45	0.00	30.228 
11:00	68.4	68.4	68.4	51	49.6	3	7	90	0.00	30.220 
11:05	68.1	68.1	68.1	50	48.7	1	3	90	0.00	30.220 
11:10	68.8	68.8	68.8	48	48.3	2	4	90	0.00	30.220 
11:15	69.3	69.3	69.3	44	46.4	1	6	90	0.00	30.221 
11:20	69.3	69.3	69.3	45	47.0	1	3	90	0.00	30.221 
11:25	69.4	69.4	69.4	46	47.7	3	6	90	0.00	30.221 
11:30	69.6	69.6	69.6	45	47.3	2	6	90	0.00	30.216 
11:35	69.6	69.6	69.6	47	48.5	2	4	112	0.00	30.216 
11:40	69.4	69.4	69.4	44	46.5	2	6	90	0.00	30.216 
11:45	70.1	70.1	70.1	44	47.2	1	5	90	0.00	30.212 
11:50	70.3	70.3	70.3	41	45.5	2	6	112	0.00	30.212 
11:55	70.4	70.4	70.4	42	46.2	1	5	90	0.00	30.212 
12:00	70.9	70.9	70.9	39	44.7	2	7	90	0.00	30.204 
12:05	71.6	71.6	71.6	38	44.6	2	5	112	0.00	30.204 
12:10	71.6	71.6	71.6	40	46.0	3	9	90	0.00	30.204 
12:15	71.6	71.6	71.6	40	46.0	3	5	90	0.00	30.202 
12:20	71.3	71.3	71.3	40	45.7	2	6	90	0.00	30.202 
12:25	70.8	70.8	70.8	42	46.6	2	5	90	0.00	30.202 
12:30	70.9	70.9	70.9	41	46.0	3	5	112	0.00	30.191 
12:35	71.5	71.5	71.5	39	45.2	2	6	112	0.00	30.191 
12:40	71.6	71.6	71.6	37	43.9	3	11	90	0.00	30.191 
12:45	71.3	71.3	71.3	40	45.7	3	12	90	0.00	30.189 
12:50	71.3	71.3	71.3	38	44.4	2	6	135	0.00	30.189 
12:55	71.6	71.6	71.6	39	45.3	2	6	90	0.00	30.189 
13:00	72.1	72.1	72.1	36	43.7	1	4	135	0.00	30.188 
13:05	72.5	72.5	72.5	39	46.1	2	7	90	0.00	30.188 
13:10	72.5	72.5	72.5	40	46.8	3	11	90	0.00	30.188 
13:15	72.8	72.8	72.8	37	45.0	1	2	112	0.00	30.186 
13:20	73.0	73.0	73.0	37	45.2	1	5	112	0.00	30.186 
13:25	73.3	73.3	73.3	38	46.1	1	3	90	0.00	30.186 
13:30	73.0	73.0	73.0	35	43.7	3	6	112	0.00	30.179 
13:35	72.8	72.8	72.8	36	44.3	1	6	112	0.00	30.179 
13:40	72.8	72.8	72.8	36	44.3	2	6	90	0.00	30.179 
13:45	72.8	72.8	72.8	39	46.4	3	6	90	0.00	30.175 
13:50	72.7	72.7	72.7	38	45.6	2	5	112	0.00	30.175 
13:55	72.1	72.1	72.1	37	44.4	2	7	112	0.00	30.175 
14:00	72.3	72.3	72.3	39	45.9	2	5	90	0.00	30.177 
14:05	72.7	72.7	72.7	36	44.2	1	4	68	0.00	30.177 
14:10	72.5	72.5	72.5	35	43.3	3	8	90	0.00	30.177 
14:15	71.6	71.6	71.6	38	44.6	2	7	112	0.00	30.173 
14:20	71.6	71.6	71.6	36	43.2	2	6	90	0.00	30.173 
14:25	72.0	72.0	72.0	35	42.8	2	7	90	0.00	30.173 
14:30	72.5	72.5	72.5	36	44.0	1	3	112	0.00	30.162 
14:35	73.0	73.0	73.0	34	43.0	3	7	90	0.00	30.162 
14:40	73.0	73.0	73.0	35	43.7	3	6	90	0.00	30.162 
14:45	72.5	72.5	72.5	35	43.3	3	9	90	0.00	30.163 
14:50	71.8	71.8	71.8	36	43.4	2	6	90	0.00	30.163 
14:55	71.3	71.3	71.3	36	43.0	1	3	112	0.00	30.163 
15:00	71.3	71.3	71.3	38	44.4	2	6	112	0.00	30.160 
15:05	71.8	71.8	71.8	38	44.8	3	6	112	0.00	30.160 
15:10	71.8	71.8	71.8	37	44.1	3	8	90	0.00	30.160 
15:15	71.1	71.1	71.1	37	43.5	2	4	90	0.00	30.158 
15:20	70.9	70.9	70.9	37	43.3	1	6	90	0.00	30.158 
15:25	71.3	71.3	71.3	37	43.7	1	4	112	0.00	30.158 
15:30	71.8	71.8	71.8	37	44.1	1	4	90	0.00	30.151 
15:35	72.3	72.3	72.3	37	44.6	1	4	112	0.00	30.151 
15:40	72.3	72.3	72.3	34	42.3	2	5	90	0.00	30.151 
15:45	72.5	72.5	72.5	35	43.3	3	6	90	0.00	30.149 
15:50	72.3	72.3	72.3	35	43.1	2	7	90	0.00	30.149 
15:55	72.5	72.5	72.5	35	43.3	1	4	90	0.00	30.149 
16:00	72.7	72.7	72.7	37	44.9	1	4	90	0.00	30.148 
16:05	72.5	72.5	72.5	35	43.3	2	5	112	0.00	30.148 
16:10	72.3	72.3	72.3	36	43.8	2	5	90	0.00	30.148 
16:15	72.3	72.3	72.3	35	43.1	1	2	135	0.00	30.146 
16:20	72.1	72.1	72.1	36	43.7	2	6	90	0.00	30.146 
16:25	72.1	72.1	72.1	34	42.2	3	6	90	0.00	30.146 
16:30	72.0	72.0	72.0	35	42.8	2	5	112	0.00	30.145 
16:35	71.8	71.8	71.8	36	43.4	1	4	112	0.00	30.145 
16:40	71.8	71.8	71.8	35	42.7	2	7	90	0.00	30.145 
16:45	71.8	71.8	71.8	35	42.7	2	6	112	0.00	30.142 
16:50	71.8	71.8	71.8	35	42.7	1	4	112	0.00	30.142 
16:55	71.8	71.8	71.8	34	41.9	1	4	112	0.00	30.142 
17:00	71.8	71.8	71.8	36	43.4	2	10	112	0.00	30.144 
17:05	71.6	71.6	71.6	35	42.5	1	5	90	0.00	30.144 
17:10	71.6	71.6	71.6	35	42.5	2	5	90	0.00	30.144 
17:15	71.5	71.5	71.5	35	42.4	2	6	90	0.00	30.140 
17:20	71.3	71.3	71.3	36	43.0	2	5	90	0.00	30.140 
17:25	71.3	71.3	71.3	37	43.7	1	5	90	0.00	30.140 
17:30	71.3	71.3	71.3	35	42.2	1	5	112	0.00	30.146 
17:35	71.1	71.1	71.1	36	42.8	1	4	68	0.00	30.146 
17:40	70.9	70.9	70.9	37	43.3	1	4	68	0.00	30.146 
17:45	70.8	70.8	70.8	39	44.6	0	2	68	0.00	30.145 
17:50	70.6	70.6	70.6	36	42.3	1	3	68	0.00	30.145 
17:55	70.4	70.4	70.4	37	42.9	1	5	90	0.00	30.145 
18:00	70.3	70.3	70.3	36	42.1	1	3	68	0.00	30.146 
18:05	70.3	70.3	70.3	37	42.8	1	5	90	0.00	30.146 
18:10	70.1	70.1	70.1	38	43.3	0	2	90	0.00	30.146 
18:15	69.9	69.9	69.9	39	43.8	1	2	90	0.00	30.146 
18:20	69.6	69.6	69.6	38	42.9	1	3	90	0.00	30.146 
18:25	69.4	69.4	69.4	39	43.4	1	2	90	0.00	30.146 
18:30	69.3	69.3	69.3	40	43.9	0	2	90	0.00	30.148 
18:35	68.9	68.9	68.9	41	44.2	0	1	90	0.00	30.148 
18:40	68.4	68.4	68.4	42	44.4	0	1	90	0.00	30.148 
18:45	68.1	68.1	68.1	43	44.7	0	2	90	0.00	30.145 
18:50	67.8	67.8	67.8	44	45.1	0	1	90	0.00	30.145 
18:55	67.3	67.3	67.3	45	45.2	0	0	---	0.00	30.145 
19:00	66.8	66.8	66.8	45	44.8	0	0	---	0.00	30.149 
19:05	66.1	66.1	66.1	48	45.8	0	0	---	0.00	30.149 
19:10	65.5	65.5	65.5	49	45.8	0	0	---	0.00	30.149 
19:15	64.8	64.8	64.8	49	45.2	0	0	---	0.00	30.147 
19:20	64.2	64.2	64.2	50	45.2	0	0	---	0.00	30.147 
19:25	63.5	63.5	63.5	52	45.6	0	0	---	0.00	30.147 
19:30	62.9	62.9	62.9	54	46.0	0	0	---	0.00	30.151 
19:35	62.4	62.4	62.4	54	45.5	0	0	---	0.00	30.151 
19:40	62.0	62.0	62.0	57	46.6	0	1	90	0.00	30.151 
19:45	61.5	61.5	61.5	59	47.0	0	1	90	0.00	30.164 
19:50	61.2	61.2	61.2	60	47.2	0	0	---	0.00	30.164 
19:55	60.9	60.9	60.9	60	46.9	0	0	---	0.00	30.164 
20:00	60.9	60.9	60.9	59	46.5	1	3	90	0.00	30.172 
20:05	61.3	61.3	61.3	59	46.8	1	2	112	0.00	30.172 
20:10	61.6	61.6	61.6	59	47.1	1	3	112	0.00	30.172 
20:15	61.8	61.8	61.8	59	47.3	1	3	112	0.00	30.175 
20:20	61.8	61.8	61.8	59	47.3	2	5	112	0.00	30.175 
20:25	61.6	61.6	61.6	60	47.6	2	4	90	0.00	30.175 
20:30	61.3	61.3	61.3	60	47.3	2	3	90	0.00	30.177 
20:35	61.2	61.2	61.2	59	46.8	2	5	90	0.00	30.177 
20:40	61.0	61.0	61.0	59	46.6	1	3	112	0.00	30.177 
20:45	61.0	61.0	61.0	58	46.1	2	6	90	0.00	30.187 
20:50	60.9	60.9	60.9	58	46.0	1	4	90	0.00	30.187 
20:55	60.9	60.9	60.9	57	45.6	1	3	112	0.00	30.187 
21:00	60.7	60.7	60.7	57	45.4	1	3	112	0.00	30.188 
21:05	60.5	60.5	60.5	58	45.6	1	3	68	0.00	30.188 
21:10	60.4	60.4	60.4	58	45.6	1	4	90	0.00	30.188 
21:15	60.2	60.2	60.2	58	45.4	1	3	90	0.00	30.187 
21:20	60.1	60.1	60.1	58	45.3	1	3	90	0.00	30.187 
21:25	59.8	59.8	59.8	59	45.4	1	3	90	0.00	30.187 
21:30	59.5	59.5	59.5	60	45.6	0	2	68	0.00	30.186 
21:35	59.2	59.2	59.2	61	45.8	0	1	68	0.00	30.186 
21:40	58.9	58.9	58.9	61	45.5	0	2	68	0.00	30.186 
21:45	58.6	58.6	58.6	62	45.6	0	2	68	0.00	30.186 
21:50	58.3	58.3	58.3	62	45.3	0	2	68	0.00	30.186 
21:55	58.0	58.0	58.0	63	45.5	0	2	68	0.00	30.186 
22:00	57.8	57.8	57.8	63	45.3	0	1	90	0.00	30.191 
22:05	57.5	57.5	57.5	64	45.4	0	2	90	0.00	30.191 
22:10	57.2	57.2	57.2	64	45.1	0	2	90	0.00	30.191 
22:15	57.0	57.0	57.0	64	44.9	0	2	90	0.00	30.190 
22:20	57.0	57.0	57.0	64	44.9	0	2	90	0.00	30.190 
22:25	56.9	56.9	56.9	64	44.8	0	1	90	0.00	30.190 
22:30	56.9	56.9	56.9	63	44.4	0	3	90	0.00	30.190 
22:35	56.7	56.7	56.7	64	44.7	0	1	90	0.00	30.190 
22:40	56.6	56.6	56.6	64	44.6	0	1	90	0.00	30.190 
22:45	56.5	56.5	56.5	64	44.5	0	1	90	0.00	30.190 
22:50	56.3	56.3	56.3	65	44.7	0	1	90	0.00	30.190 
22:55	56.0	56.0	56.0	65	44.4	0	0	---	0.00	30.190 
23:00	55.7	55.7	55.7	66	44.5	0	0	---	0.00	30.192 
23:05	55.4	55.4	55.4	66	44.2	0	0	---	0.00	30.192 
23:10	55.0	55.0	55.0	67	44.2	0	0	---	0.00	30.192 
23:15	54.7	54.7	54.7	68	44.3	0	1	90	0.00	30.189 
23:20	54.5	54.5	54.5	69	44.5	0	0	---	0.00	30.189 
23:25	54.2	54.2	54.2	69	44.3	0	0	---	0.00	30.189 
23:30	53.9	53.9	53.9	70	44.3	0	0	---	0.00	30.191 
23:35	53.6	53.6	53.6	71	44.4	0	0	---	0.00	30.191 
23:40	53.5	53.5	53.5	72	44.7	0	1	90	0.00	30.191 
23:45	53.5	53.5	53.5	73	45.1	0	0	---	0.00	30.189 
23:50	53.5	53.5	53.5	73	45.1	0	1	90	0.00	30.189 
23:55	53.5	53.5	53.5	73	45.1	0	0	---	0.00	30.189 

CoCoRaHS
IN-AL-39
A2 Web Hosting
Creative Commons License
GoDaddy
Look for:

loaded 2017-10-20 19:40:49 • last modified 2010-11-18 10:43:29
Privacy PolicyDisclaimer
• wx.awcolley.com is powered by PmWiki v.2002016 •
• all content (unless otherwise noted) © 2017 A W Colley